sensor_id;sensor_type;location;lat;lon;timestamp;pressure;altitude;pressure_sealevel;temperature;humidity
51617;BME280;37697;52.588;13.394;2023-09-19T00:02:59;100129.98;;;17.90;97.43
51617;BME280;37697;52.588;13.394;2023-09-19T00:08:06;100121.38;;;17.86;97.35
51617;BME280;37697;52.588;13.394;2023-09-19T00:13:12;100122.07;;;17.82;97.52
51617;BME280;37697;52.588;13.394;2023-09-19T00:18:21;100121.36;;;17.78;97.84
51617;BME280;37697;52.588;13.394;2023-09-19T00:23:28;100110.48;;;17.75;97.77
51617;BME280;37697;52.588;13.394;2023-09-19T00:28:33;100103.08;;;17.71;98.01
51617;BME280;37697;52.588;13.394;2023-09-19T00:33:40;100106.20;;;17.68;97.94
51617;BME280;37697;52.588;13.394;2023-09-19T00:38:46;100106.04;;;17.64;98.05
51617;BME280;37697;52.588;13.394;2023-09-19T00:43:52;100106.83;;;17.59;97.98
51617;BME280;37697;52.588;13.394;2023-09-19T00:48:57;100105.88;;;17.55;98.30
51617;BME280;37697;52.588;13.394;2023-09-19T00:54:05;100110.20;;;17.54;98.55
51617;BME280;37697;52.588;13.394;2023-09-19T00:59:10;100112.94;;;17.52;98.56
51617;BME280;37697;52.588;13.394;2023-09-19T01:04:17;100109.93;;;17.49;98.68
51617;BME280;37697;52.588;13.394;2023-09-19T01:09:23;100117.36;;;17.46;98.74
51617;BME280;37697;52.588;13.394;2023-09-19T01:14:34;100114.98;;;17.42;98.77
51617;BME280;37697;52.588;13.394;2023-09-19T01:20:01;100109.19;;;17.39;98.86
51617;BME280;37697;52.588;13.394;2023-09-19T01:30:44;100121.35;;;17.35;99.25
51617;BME280;37697;52.588;13.394;2023-09-19T01:35:52;100121.52;;;17.35;99.40
51617;BME280;37697;52.588;13.394;2023-09-19T01:41:06;100124.16;;;17.36;99.42
51617;BME280;37697;52.588;13.394;2023-09-19T01:46:18;100127.45;;;17.38;99.59
51617;BME280;37697;52.588;13.394;2023-09-19T01:51:34;100125.86;;;17.38;99.61
51617;BME280;37697;52.588;13.394;2023-09-19T01:56:48;100123.13;;;17.37;99.62
51617;BME280;37697;52.588;13.394;2023-09-19T02:01:56;100116.74;;;17.35;99.61
51617;BME280;37697;52.588;13.394;2023-09-19T02:07:03;100123.21;;;17.30;99.51
51617;BME280;37697;52.588;13.394;2023-09-19T02:12:11;100137.50;;;17.21;99.54
51617;BME280;37697;52.588;13.394;2023-09-19T02:17:16;100147.90;;;17.17;99.82
51617;BME280;37697;52.588;13.394;2023-09-19T02:22:22;100146.86;;;17.14;99.97
51617;BME280;37697;52.588;13.394;2023-09-19T02:27:28;100156.87;;;17.10;99.99
51617;BME280;37697;52.588;13.394;2023-09-19T02:32:33;100153.11;;;17.05;100.00
51617;BME280;37697;52.588;13.394;2023-09-19T02:37:42;100158.02;;;17.01;100.00
51617;BME280;37697;52.588;13.394;2023-09-19T02:42:48;100159.51;;;16.97;100.00
51617;BME280;37697;52.588;13.394;2023-09-19T02:47:55;100165.45;;;16.93;100.00
51617;BME280;37697;52.588;13.394;2023-09-19T02:53:01;100173.98;;;16.88;100.00
51617;BME280;37697;52.588;13.394;2023-09-19T02:58:07;100176.04;;;16.82;100.00
51617;BME280;37697;52.588;13.394;2023-09-19T03:03:20;100179.87;;;16.77;100.00
51617;BME280;37697;52.588;13.394;2023-09-19T03:08:25;100180.46;;;16.72;100.00
51617;BME280;37697;52.588;13.394;2023-09-19T03:13:31;100186.73;;;16.65;100.00
51617;BME280;37697;52.588;13.394;2023-09-19T03:18:36;100183.02;;;16.60;100.00
51617;BME280;37697;52.588;13.394;2023-09-19T03:23:42;100190.05;;;16.58;100.00
51617;BME280;37697;52.588;13.394;2023-09-19T03:28:50;100193.30;;;16.55;100.00
51617;BME280;37697;52.588;13.394;2023-09-19T03:33:55;100210.11;;;16.51;100.00
51617;BME280;37697;52.588;13.394;2023-09-19T03:39:00;100208.45;;;16.48;100.00
51617;BME280;37697;52.588;13.394;2023-09-19T03:44:06;100212.05;;;16.46;100.00
51617;BME280;37697;52.588;13.394;2023-09-19T03:49:11;100213.20;;;16.45;100.00
51617;BME280;37697;52.588;13.394;2023-09-19T03:54:17;100222.19;;;16.43;100.00
51617;BME280;37697;52.588;13.394;2023-09-19T03:59:24;100226.39;;;16.42;99.92
51617;BME280;37697;52.588;13.394;2023-09-19T04:04:30;100228.77;;;16.42;99.53
51617;BME280;37697;52.588;13.394;2023-09-19T04:09:35;100232.73;;;16.39;98.92
51617;BME280;37697;52.588;13.394;2023-09-19T04:14:40;100232.55;;;16.35;98.31
51617;BME280;37697;52.588;13.394;2023-09-19T04:19:46;100233.60;;;16.30;97.92
51617;BME280;37697;52.588;13.394;2023-09-19T04:24:51;100234.25;;;16.25;97.67
51617;BME280;37697;52.588;13.394;2023-09-19T04:29:57;100242.38;;;16.20;97.31
51617;BME280;37697;52.588;13.394;2023-09-19T04:35:05;100249.79;;;16.13;96.97
51617;BME280;37697;52.588;13.394;2023-09-19T04:40:14;100257.02;;;16.08;96.94
51617;BME280;37697;52.588;13.394;2023-09-19T04:45:23;100263.15;;;16.03;96.70
51617;BME280;37697;52.588;13.394;2023-09-19T04:50:28;100273.15;;;16.01;96.50
51617;BME280;37697;52.588;13.394;2023-09-19T04:55:34;100275.89;;;15.97;96.22
51617;BME280;37697;52.588;13.394;2023-09-19T05:00:40;100275.95;;;15.93;95.94
51617;BME280;37697;52.588;13.394;2023-09-19T05:05:45;100280.05;;;15.92;95.77
51617;BME280;37697;52.588;13.394;2023-09-19T05:10:51;100283.88;;;15.90;95.47
51617;BME280;37697;52.588;13.394;2023-09-19T05:15:56;100289.34;;;15.85;95.19
51617;BME280;37697;52.588;13.394;2023-09-19T05:21:05;100296.44;;;15.81;95.28
51617;BME280;37697;52.588;13.394;2023-09-19T05:26:10;100306.14;;;15.79;95.28
51617;BME280;37697;52.588;13.394;2023-09-19T05:31:16;100315.76;;;15.75;95.18
51617;BME280;37697;52.588;13.394;2023-09-19T05:36:22;100320.07;;;15.71;95.25
51617;BME280;37697;52.588;13.394;2023-09-19T05:41:28;100319.90;;;15.68;95.32
51617;BME280;37697;52.588;13.394;2023-09-19T05:46:34;100326.77;;;15.65;95.29
51617;BME280;37697;52.588;13.394;2023-09-19T05:51:40;100338.13;;;15.63;95.42
51617;BME280;37697;52.588;13.394;2023-09-19T05:56:45;100345.58;;;15.60;95.39
51617;BME280;37697;52.588;13.394;2023-09-19T06:01:52;100356.00;;;15.61;95.27
51617;BME280;37697;52.588;13.394;2023-09-19T06:06:58;100366.56;;;15.62;95.25
51617;BME280;37697;52.588;13.394;2023-09-19T06:12:04;100374.66;;;15.65;95.18
51617;BME280;37697;52.588;13.394;2023-09-19T06:17:10;100388.85;;;15.72;95.19
51617;BME280;37697;52.588;13.394;2023-09-19T06:22:17;100389.16;;;15.83;95.24
51617;BME280;37697;52.588;13.394;2023-09-19T06:27:25;100391.02;;;15.97;95.20
51617;BME280;37697;52.588;13.394;2023-09-19T06:32:31;100397.15;;;16.07;94.86
51617;BME280;37697;52.588;13.394;2023-09-19T06:37:36;100393.61;;;16.19;94.26
51617;BME280;37697;52.588;13.394;2023-09-19T06:42:44;100395.13;;;16.32;93.71
51617;BME280;37697;52.588;13.394;2023-09-19T06:47:51;100404.42;;;16.53;93.61
51617;BME280;37697;52.588;13.394;2023-09-19T06:52:58;100409.58;;;16.80;93.24
51617;BME280;37697;52.588;13.394;2023-09-19T06:58:06;100407.59;;;17.00;92.19
51617;BME280;37697;52.588;13.394;2023-09-19T07:03:13;100414.40;;;17.19;91.40
51617;BME280;37697;52.588;13.394;2023-09-19T07:08:18;100413.79;;;17.44;90.01
51617;BME280;37697;52.588;13.394;2023-09-19T07:13:25;100424.52;;;17.56;89.19
51617;BME280;37697;52.588;13.394;2023-09-19T07:18:31;100435.48;;;17.74;88.50
51617;BME280;37697;52.588;13.394;2023-09-19T07:23:37;100442.89;;;17.75;87.69
51617;BME280;37697;52.588;13.394;2023-09-19T07:28:44;100450.17;;;17.71;87.13
51617;BME280;37697;52.588;13.394;2023-09-19T07:33:49;100452.77;;;17.63;86.64
51617;BME280;37697;52.588;13.394;2023-09-19T07:38:54;100457.44;;;17.53;86.23
51617;BME280;37697;52.588;13.394;2023-09-19T07:44:10;100454.12;;;17.50;85.94
51617;BME280;37697;52.588;13.394;2023-09-19T07:49:16;100464.30;;;17.51;84.95
51617;BME280;37697;52.588;13.394;2023-09-19T07:54:23;100477.52;;;17.45;84.44
51617;BME280;37697;52.588;13.394;2023-09-19T07:59:28;100489.45;;;17.60;84.75
51617;BME280;37697;52.588;13.394;2023-09-19T08:04:34;100485.05;;;17.80;84.04
51617;BME280;37697;52.588;13.394;2023-09-19T08:09:39;100482.23;;;17.91;82.99
51617;BME280;37697;52.588;13.394;2023-09-19T08:14:45;100482.48;;;17.97;80.85
51617;BME280;37697;52.588;13.394;2023-09-19T08:19:53;100475.82;;;17.89;79.89
51617;BME280;37697;52.588;13.394;2023-09-19T08:24:59;100492.20;;;17.80;79.09
51617;BME280;37697;52.588;13.394;2023-09-19T08:30:06;100491.45;;;17.76;79.43
51617;BME280;37697;52.588;13.394;2023-09-19T08:35:12;100497.71;;;17.78;78.84
51617;BME280;37697;52.588;13.394;2023-09-19T08:40:17;100506.91;;;17.76;78.41
51617;BME280;37697;52.588;13.394;2023-09-19T08:45:24;100503.02;;;17.85;78.65
51617;BME280;37697;52.588;13.394;2023-09-19T08:50:36;100511.91;;;17.97;78.20
51617;BME280;37697;52.588;13.394;2023-09-19T08:55:44;100509.33;;;18.14;78.22
51617;BME280;37697;52.588;13.394;2023-09-19T09:00:53;100515.77;;;18.21;76.55
51617;BME280;37697;52.588;13.394;2023-09-19T09:06:00;100524.29;;;18.08;75.17
51617;BME280;37697;52.588;13.394;2023-09-19T09:11:07;100525.91;;;17.91;75.26
51617;BME280;37697;52.588;13.394;2023-09-19T09:16:13;100535.70;;;17.93;75.04
51617;BME280;37697;52.588;13.394;2023-09-19T09:21:19;100540.95;;;18.18;75.58
51617;BME280;37697;52.588;13.394;2023-09-19T09:26:47;100537.52;;;18.47;74.98
51617;BME280;37697;52.588;13.394;2023-09-19T09:31:52;100538.42;;;18.45;73.39
51617;BME280;37697;52.588;13.394;2023-09-19T09:36:58;100537.63;;;18.45;73.32
51617;BME280;37697;52.588;13.394;2023-09-19T09:42:04;100535.81;;;18.29;72.00
51617;BME280;37697;52.588;13.394;2023-09-19T09:47:12;100536.02;;;18.48;72.33
51617;BME280;37697;52.588;13.394;2023-09-19T09:52:45;100546.94;;;18.52;71.62
51617;BME280;37697;52.588;13.394;2023-09-19T09:58:17;100544.70;;;18.38;70.91
51617;BME280;37697;52.588;13.394;2023-09-19T10:03:32;100546.36;;;18.27;71.07
51617;BME280;37697;52.588;13.394;2023-09-19T10:08:39;100552.16;;;18.14;71.24
51617;BME280;37697;52.588;13.394;2023-09-19T10:13:45;100550.84;;;18.16;70.71
51617;BME280;37697;52.588;13.394;2023-09-19T10:18:54;100547.80;;;18.11;70.07
51617;BME280;37697;52.588;13.394;2023-09-19T10:24:04;100550.95;;;18.14;68.68
51617;BME280;37697;52.588;13.394;2023-09-19T10:29:14;100545.23;;;18.27;67.86
51617;BME280;37697;52.588;13.394;2023-09-19T10:34:23;100548.80;;;18.59;67.88
51617;BME280;37697;52.588;13.394;2023-09-19T10:39:31;100540.71;;;18.89;66.78
51617;BME280;37697;52.588;13.394;2023-09-19T10:44:39;100533.70;;;19.19;67.21
51617;BME280;37697;52.588;13.394;2023-09-19T10:49:48;100542.80;;;19.55;66.09
51617;BME280;37697;52.588;13.394;2023-09-19T10:54:56;100537.16;;;19.93;63.41
51617;BME280;37697;52.588;13.394;2023-09-19T11:00:07;100537.77;;;20.15;60.22
51617;BME280;37697;52.588;13.394;2023-09-19T11:05:29;100548.79;;;20.14;59.90
51617;BME280;37697;52.588;13.394;2023-09-19T11:10:49;100552.33;;;19.76;59.70
51617;BME280;37697;52.588;13.394;2023-09-19T11:16:06;100555.70;;;19.49;59.21
51617;BME280;37697;52.588;13.394;2023-09-19T11:21:53;100560.98;;;19.38;59.32
51617;BME280;37697;52.588;13.394;2023-09-19T11:27:16;100557.86;;;19.49;59.46
51617;BME280;37697;52.588;13.394;2023-09-19T11:38:16;100563.92;;;19.77;57.73
51617;BME280;37697;52.588;13.394;2023-09-19T11:43:31;100556.39;;;19.79;57.43
51617;BME280;37697;52.588;13.394;2023-09-19T11:48:43;100562.24;;;19.73;57.47
51617;BME280;37697;52.588;13.394;2023-09-19T11:53:55;100553.36;;;19.84;57.01
51617;BME280;37697;52.588;13.394;2023-09-19T11:59:00;100558.35;;;19.78;56.63
51617;BME280;37697;52.588;13.394;2023-09-19T12:04:06;100563.41;;;19.79;56.10
51617;BME280;37697;52.588;13.394;2023-09-19T12:09:14;100565.60;;;19.74;55.94
51617;BME280;37697;52.588;13.394;2023-09-19T12:14:25;100566.59;;;19.83;55.50
51617;BME280;37697;52.588;13.394;2023-09-19T12:19:31;100567.49;;;19.97;55.62
51617;BME280;37697;52.588;13.394;2023-09-19T12:24:37;100561.50;;;20.06;55.42
51617;BME280;37697;52.588;13.394;2023-09-19T12:29:46;100556.73;;;20.22;54.45
51617;BME280;37697;52.588;13.394;2023-09-19T12:34:56;100557.20;;;20.36;54.99
51617;BME280;37697;52.588;13.394;2023-09-19T12:40:09;100555.41;;;20.54;53.52
51617;BME280;37697;52.588;13.394;2023-09-19T12:45:27;100552.62;;;20.60;52.06
51617;BME280;37697;52.588;13.394;2023-09-19T12:50:34;100555.95;;;20.57;52.08
51617;BME280;37697;52.588;13.394;2023-09-19T12:55:39;100551.86;;;20.57;52.81
51617;BME280;37697;52.588;13.394;2023-09-19T13:00:47;100562.26;;;20.52;52.56
51617;BME280;37697;52.588;13.394;2023-09-19T13:06:00;100566.89;;;20.42;52.55
51617;BME280;37697;52.588;13.394;2023-09-19T13:11:11;100572.12;;;20.30;53.06
51617;BME280;37697;52.588;13.394;2023-09-19T13:16:21;100566.19;;;20.23;52.75
51617;BME280;37697;52.588;13.394;2023-09-19T13:21:32;100568.84;;;20.15;53.25
51617;BME280;37697;52.588;13.394;2023-09-19T13:26:42;100570.75;;;20.01;52.53
51617;BME280;37697;52.588;13.394;2023-09-19T13:31:49;100568.41;;;19.86;52.70
51617;BME280;37697;52.588;13.394;2023-09-19T13:36:55;100567.35;;;19.73;53.30
51617;BME280;37697;52.588;13.394;2023-09-19T13:42:00;100566.61;;;19.60;53.34
51617;BME280;37697;52.588;13.394;2023-09-19T13:47:08;100569.91;;;19.58;53.95
51617;BME280;37697;52.588;13.394;2023-09-19T13:52:15;100565.34;;;19.65;53.37
51617;BME280;37697;52.588;13.394;2023-09-19T13:57:21;100565.50;;;19.73;53.50
51617;BME280;37697;52.588;13.394;2023-09-19T14:02:26;100562.73;;;19.77;53.44
51617;BME280;37697;52.588;13.394;2023-09-19T14:07:32;100567.39;;;19.71;53.24
51617;BME280;37697;52.588;13.394;2023-09-19T14:12:37;100559.69;;;19.61;52.86
51617;BME280;37697;52.588;13.394;2023-09-19T14:17:43;100560.13;;;19.63;53.20
51617;BME280;37697;52.588;13.394;2023-09-19T14:22:51;100558.45;;;19.68;53.18
51617;BME280;37697;52.588;13.394;2023-09-19T14:27:56;100552.33;;;19.76;53.30
51617;BME280;37697;52.588;13.394;2023-09-19T14:33:01;100552.23;;;19.79;53.75
51617;BME280;37697;52.588;13.394;2023-09-19T14:38:07;100552.25;;;19.76;53.86
51617;BME280;37697;52.588;13.394;2023-09-19T14:43:13;100553.36;;;19.68;53.92
51617;BME280;37697;52.588;13.394;2023-09-19T14:48:18;100549.73;;;19.62;53.95
51617;BME280;37697;52.588;13.394;2023-09-19T14:53:24;100551.71;;;19.61;54.00
51617;BME280;37697;52.588;13.394;2023-09-19T14:58:32;100543.34;;;19.63;54.18
51617;BME280;37697;52.588;13.394;2023-09-19T15:03:40;100541.15;;;19.56;54.15
51617;BME280;37697;52.588;13.394;2023-09-19T15:08:47;100540.13;;;19.53;54.30
51617;BME280;37697;52.588;13.394;2023-09-19T15:13:53;100538.12;;;19.48;54.47
51617;BME280;37697;52.588;13.394;2023-09-19T15:18:59;100538.86;;;19.49;54.61
51617;BME280;37697;52.588;13.394;2023-09-19T15:24:06;100533.87;;;19.50;54.42
51617;BME280;37697;52.588;13.394;2023-09-19T15:29:15;100532.55;;;19.48;53.93
51617;BME280;37697;52.588;13.394;2023-09-19T15:34:21;100526.02;;;19.45;54.03
51617;BME280;37697;52.588;13.394;2023-09-19T15:39:29;100529.55;;;19.42;54.25
51617;BME280;37697;52.588;13.394;2023-09-19T15:44:38;100528.59;;;19.38;54.29
51617;BME280;37697;52.588;13.394;2023-09-19T15:49:43;100530.29;;;19.35;54.30
51617;BME280;37697;52.588;13.394;2023-09-19T15:54:49;100531.52;;;19.29;54.51
51617;BME280;37697;52.588;13.394;2023-09-19T15:59:57;100534.73;;;19.25;54.42
51617;BME280;37697;52.588;13.394;2023-09-19T16:05:04;100524.43;;;19.22;54.36
51617;BME280;37697;52.588;13.394;2023-09-19T16:10:12;100533.61;;;19.18;54.56
51617;BME280;37697;52.588;13.394;2023-09-19T16:15:19;100539.48;;;19.13;54.49
51617;BME280;37697;52.588;13.394;2023-09-19T16:20:24;100541.37;;;19.08;54.76
51617;BME280;37697;52.588;13.394;2023-09-19T16:25:29;100542.95;;;19.04;54.86
51617;BME280;37697;52.588;13.394;2023-09-19T16:30:35;100544.33;;;18.97;54.88
51617;BME280;37697;52.588;13.394;2023-09-19T16:35:40;100542.34;;;18.87;54.91
51617;BME280;37697;52.588;13.394;2023-09-19T16:40:54;100538.98;;;18.73;55.30
51617;BME280;37697;52.588;13.394;2023-09-19T16:46:01;100539.00;;;18.59;55.65
51617;BME280;37697;52.588;13.394;2023-09-19T16:51:12;100549.85;;;18.43;56.08
51617;BME280;37697;52.588;13.394;2023-09-19T16:56:18;100547.11;;;18.26;56.00
51617;BME280;37697;52.588;13.394;2023-09-19T17:01:24;100538.34;;;18.15;55.80
51617;BME280;37697;52.588;13.394;2023-09-19T17:06:31;100543.03;;;18.12;56.21
51617;BME280;37697;52.588;13.394;2023-09-19T17:11:36;100539.88;;;18.04;56.32
51617;BME280;37697;52.588;13.394;2023-09-19T17:16:42;100533.90;;;17.94;56.56
51617;BME280;37697;52.588;13.394;2023-09-19T17:21:47;100527.75;;;17.88;56.98
51617;BME280;37697;52.588;13.394;2023-09-19T17:26:53;100533.50;;;17.74;57.36
51617;BME280;37697;52.588;13.394;2023-09-19T17:31:58;100540.81;;;17.62;57.74
51617;BME280;37697;52.588;13.394;2023-09-19T17:37:05;100544.59;;;17.52;57.93
51617;BME280;37697;52.588;13.394;2023-09-19T17:42:13;100549.41;;;17.42;57.92
51617;BME280;37697;52.588;13.394;2023-09-19T17:47:19;100558.25;;;17.34;58.20
51617;BME280;37697;52.588;13.394;2023-09-19T17:52:28;100569.84;;;17.28;58.44
51617;BME280;37697;52.588;13.394;2023-09-19T17:57:36;100565.56;;;17.20;58.51
51617;BME280;37697;52.588;13.394;2023-09-19T18:02:43;100565.48;;;17.15;59.06
51617;BME280;37697;52.588;13.394;2023-09-19T18:07:52;100569.88;;;17.08;59.38
51617;BME280;37697;52.588;13.394;2023-09-19T18:13:01;100569.60;;;16.98;59.59
51617;BME280;37697;52.588;13.394;2023-09-19T18:18:08;100579.91;;;16.90;59.74
51617;BME280;37697;52.588;13.394;2023-09-19T18:23:18;100582.32;;;16.83;59.60
51617;BME280;37697;52.588;13.394;2023-09-19T18:28:25;100580.50;;;16.81;59.69
51617;BME280;37697;52.588;13.394;2023-09-19T18:33:30;100590.80;;;16.78;59.53
51617;BME280;37697;52.588;13.394;2023-09-19T18:38:41;100599.51;;;16.79;59.45
51617;BME280;37697;52.588;13.394;2023-09-19T18:43:48;100599.55;;;16.85;59.05
51617;BME280;37697;52.588;13.394;2023-09-19T18:48:56;100598.84;;;16.88;58.92
51617;BME280;37697;52.588;13.394;2023-09-19T18:54:05;100601.44;;;16.92;58.80
51617;BME280;37697;52.588;13.394;2023-09-19T18:59:18;100608.39;;;16.93;58.80
51617;BME280;37697;52.588;13.394;2023-09-19T19:04:29;100609.23;;;16.95;58.47
51617;BME280;37697;52.588;13.394;2023-09-19T19:09:36;100611.38;;;16.97;58.51
51617;BME280;37697;52.588;13.394;2023-09-19T19:14:41;100612.88;;;17.02;58.34
51617;BME280;37697;52.588;13.394;2023-09-19T19:19:50;100610.87;;;17.04;58.26
51617;BME280;37697;52.588;13.394;2023-09-19T19:24:56;100616.35;;;17.07;58.26
51617;BME280;37697;52.588;13.394;2023-09-19T19:30:02;100618.02;;;17.07;58.35
51617;BME280;37697;52.588;13.394;2023-09-19T19:35:09;100617.11;;;17.03;58.32
51617;BME280;37697;52.588;13.394;2023-09-19T19:40:15;100615.14;;;16.99;58.62
51617;BME280;37697;52.588;13.394;2023-09-19T19:45:22;100615.97;;;16.92;58.87
51617;BME280;37697;52.588;13.394;2023-09-19T19:50:29;100616.70;;;16.88;58.93
51617;BME280;37697;52.588;13.394;2023-09-19T19:55:34;100617.98;;;16.85;59.16
51617;BME280;37697;52.588;13.394;2023-09-19T20:00:40;100618.58;;;16.79;59.35
51617;BME280;37697;52.588;13.394;2023-09-19T20:05:48;100620.89;;;16.75;59.47
51617;BME280;37697;52.588;13.394;2023-09-19T20:11:01;100618.01;;;16.72;59.70
51617;BME280;37697;52.588;13.394;2023-09-19T20:16:07;100617.43;;;16.63;60.02
51617;BME280;37697;52.588;13.394;2023-09-19T20:21:13;100613.95;;;16.57;60.16
51617;BME280;37697;52.588;13.394;2023-09-19T20:26:19;100617.29;;;16.55;60.21
51617;BME280;37697;52.588;13.394;2023-09-19T20:31:25;100615.30;;;16.52;60.39
51617;BME280;37697;52.588;13.394;2023-09-19T20:36:31;100611.81;;;16.47;60.54
51617;BME280;37697;52.588;13.394;2023-09-19T20:41:37;100611.85;;;16.41;60.85
51617;BME280;37697;52.588;13.394;2023-09-19T20:46:42;100607.72;;;16.36;60.93
51617;BME280;37697;52.588;13.394;2023-09-19T20:51:49;100604.79;;;16.32;61.08
51617;BME280;37697;52.588;13.394;2023-09-19T20:56:54;100611.52;;;16.29;61.38
51617;BME280;37697;52.588;13.394;2023-09-19T21:02:00;100605.13;;;16.28;61.55
51617;BME280;37697;52.588;13.394;2023-09-19T21:07:05;100605.43;;;16.27;61.68
51617;BME280;37697;52.588;13.394;2023-09-19T21:12:11;100607.03;;;16.25;61.91
51617;BME280;37697;52.588;13.394;2023-09-19T21:17:17;100606.30;;;16.22;61.98
51617;BME280;37697;52.588;13.394;2023-09-19T21:22:22;100605.36;;;16.20;62.20
51617;BME280;37697;52.588;13.394;2023-09-19T21:27:27;100608.77;;;16.18;62.17
51617;BME280;37697;52.588;13.394;2023-09-19T21:32:33;100609.60;;;16.19;62.25
51617;BME280;37697;52.588;13.394;2023-09-19T21:37:41;100604.70;;;16.18;62.28
51617;BME280;37697;52.588;13.394;2023-09-19T21:42:46;100598.54;;;16.19;62.38
51617;BME280;37697;52.588;13.394;2023-09-19T21:47:52;100599.48;;;16.18;62.36
51617;BME280;37697;52.588;13.394;2023-09-19T21:52:58;100594.43;;;16.21;62.43
51617;BME280;37697;52.588;13.394;2023-09-19T21:58:03;100586.14;;;16.25;62.36
51617;BME280;37697;52.588;13.394;2023-09-19T22:03:09;100585.55;;;16.27;62.31
51617;BME280;37697;52.588;13.394;2023-09-19T22:08:14;100579.34;;;16.28;62.11
51617;BME280;37697;52.588;13.394;2023-09-19T22:13:20;100577.41;;;16.27;62.00
51617;BME280;37697;52.588;13.394;2023-09-19T22:18:29;100577.83;;;16.28;62.04
51617;BME280;37697;52.588;13.394;2023-09-19T22:23:35;100577.35;;;16.30;62.00
51617;BME280;37697;52.588;13.394;2023-09-19T22:28:42;100575.52;;;16.30;61.91
51617;BME280;37697;52.588;13.394;2023-09-19T22:33:49;100572.80;;;16.29;61.96
51617;BME280;37697;52.588;13.394;2023-09-19T22:38:55;100572.36;;;16.26;61.92
51617;BME280;37697;52.588;13.394;2023-09-19T22:44:05;100572.81;;;16.25;61.93
51617;BME280;37697;52.588;13.394;2023-09-19T22:49:12;100572.78;;;16.24;62.03
51617;BME280;37697;52.588;13.394;2023-09-19T22:54:22;100574.63;;;16.20;62.13
51617;BME280;37697;52.588;13.394;2023-09-19T22:59:41;100575.79;;;16.19;62.18
51617;BME280;37697;52.588;13.394;2023-09-19T23:04:47;100573.29;;;16.18;62.17
51617;BME280;37697;52.588;13.394;2023-09-19T23:09:52;100574.86;;;16.15;62.39
51617;BME280;37697;52.588;13.394;2023-09-19T23:14:58;100574.27;;;16.12;62.47
51617;BME280;37697;52.588;13.394;2023-09-19T23:20:08;100573.41;;;16.07;62.45
51617;BME280;37697;52.588;13.394;2023-09-19T23:25:15;100572.80;;;16.04;62.50
51617;BME280;37697;52.588;13.394;2023-09-19T23:30:31;100575.64;;;16.01;62.57
51617;BME280;37697;52.588;13.394;2023-09-19T23:35:38;100579.05;;;15.96;62.60
51617;BME280;37697;52.588;13.394;2023-09-19T23:40:43;100576.46;;;15.92;62.70
51617;BME280;37697;52.588;13.394;2023-09-19T23:45:52;100576.44;;;15.87;62.79
51617;BME280;37697;52.588;13.394;2023-09-19T23:50:58;100576.85;;;15.83;63.00
51617;BME280;37697;52.588;13.394;2023-09-19T23:56:07;100579.95;;;15.77;63.07
